PWSweather.com
Personal Weather Stations
Station Observations
AF1HS
North Haven, CT 06473

North Haven, CT 06473

Lat: 41.3733, Lon: -72.8413

Elevation: 85.3

Station Type: Oregon Scientific WMR968

http://www.af1hs.com/wx/index.php

Latest ConditionsUpdated 4:40:01 PM EDT Wednesday, Apr 24, 2019
Currently Today's Max Today's Min Today's Average
Temperature 63.0°F17.2°C 69.0°F20.6°C 48.0°F8.9°C 59.0°F15.0°C
Dew Point 34.9°F1.6°C 44.2°F6.8°C 34.9°F1.6°C 39.0°F3.9°C
Winds Calm Calm Calm -Calm - - Calm Calm
Wind Gusts -- -- - -
Humidity 35% 64% 35% 49%
Pressure 29.72 in1006.4 mb 29.75 in1007.5 mb 29.63 in1003.4 mb -
Hour Temp Dew Point Humidity Winds Wind Gusts Pressure Precip Precip Rate Daily Precip Total
04:40 PM 63.0°F17.2°C 34.9°F1.6°C 35% Calm Calm -- 29.72 in1006.4 mb - 0.00 in0.0 mm 0.00 in0.0 mm
04:30 PM 63.1°F17.3°C 35.0°F1.7°C 35% Calm Calm -- 29.72 in1006.4 mb - 0.00 in0.0 mm 0.00 in0.0 mm
04:20 PM 63.1°F17.3°C 35.0°F1.7°C 35% Calm Calm -- 29.72 in1006.4 mb - 0.00 in0.0 mm 0.00 in0.0 mm
04:10 PM 63.1°F17.3°C 35.0°F1.7°C 35% Calm Calm -- 29.72 in1006.4 mb - 0.00 in0.0 mm 0.00 in0.0 mm
04:00 PM 63.5°F17.5°C 35.3°F1.8°C 35% Calm Calm -- 29.72 in1006.4 mb - 0.00 in0.0 mm 0.00 in0.0 mm
03:50 PM 64.6°F18.1°C 36.3°F2.4°C 35% Calm Calm -- 29.70 in1005.8 mb - 0.00 in0.0 mm 0.00 in0.0 mm
03:40 PM 63.3°F17.4°C 35.2°F1.8°C 35% Calm Calm -- 29.69 in1005.4 mb - 0.00 in0.0 mm 0.00 in0.0 mm
03:30 PM 63.8°F17.7°C 35.6°F2.0°C 35% Calm Calm -- 29.72 in1006.4 mb - 0.00 in0.0 mm 0.00 in0.0 mm
03:20 PM 63.4°F17.4°C 35.3°F1.8°C 35% Calm Calm -- 29.72 in1006.4 mb - 0.00 in0.0 mm 0.00 in0.0 mm
03:10 PM 63.6°F17.6°C 35.4°F1.9°C 35% Calm Calm -- 29.72 in1006.4 mb - 0.00 in0.0 mm 0.00 in0.0 mm
03:00 PM 64.4°F18.0°C 36.2°F2.3°C 35% Calm Calm -- 29.72 in1006.4 mb - 0.00 in0.0 mm 0.00 in0.0 mm
02:50 PM 64.4°F18.0°C 36.1°F2.3°C 35% Calm Calm -- 29.72 in1006.4 mb - 0.00 in0.0 mm 0.00 in0.0 mm
02:40 PM 65.0°F18.3°C 36.7°F2.6°C 35% Calm Calm -- 29.72 in1006.4 mb - 0.00 in0.0 mm 0.00 in0.0 mm
02:30 PM 66.4°F19.1°C 38.6°F3.7°C 36% Calm Calm -- 29.72 in1006.4 mb - 0.00 in0.0 mm 0.00 in0.0 mm
02:20 PM 66.7°F19.3°C 38.9°F3.8°C 36% Calm Calm -- 29.72 in1006.4 mb - 0.00 in0.0 mm 0.00 in0.0 mm
02:10 PM 66.2°F19.0°C 38.4°F3.6°C 36% Calm Calm -- 29.72 in1006.4 mb - 0.00 in0.0 mm 0.00 in0.0 mm
02:00 PM 66.9°F19.4°C 38.4°F3.6°C 35% Calm Calm -- 29.69 in1005.4 mb - 0.00 in0.0 mm 0.00 in0.0 mm
01:50 PM 67.8°F19.9°C 39.2°F4.0°C 35% Calm Calm -- 29.69 in1005.4 mb - 0.00 in0.0 mm 0.00 in0.0 mm
01:40 PM 67.9°F19.9°C 39.9°F4.4°C 36% Calm Calm -- 29.69 in1005.4 mb - 0.00 in0.0 mm 0.00 in0.0 mm
01:30 PM 67.6°F19.8°C 39.6°F4.2°C 36% Calm Calm -- 29.69 in1005.4 mb - 0.00 in0.0 mm 0.00 in0.0 mm
01:20 PM 67.1°F19.5°C 39.2°F4.0°C 36% Calm Calm -- 29.72 in1006.4 mb - 0.00 in0.0 mm 0.00 in0.0 mm
01:10 PM 68.0°F20.0°C 39.3°F4.1°C 35% Calm Calm -- 29.72 in1006.4 mb - 0.00 in0.0 mm 0.00 in0.0 mm
01:00 PM 68.2°F20.1°C 39.5°F4.2°C 35% Calm Calm -- 29.69 in1005.4 mb - 0.00 in0.0 mm 0.00 in0.0 mm
12:50 PM 68.0°F20.0°C 39.3°F4.1°C 35% Calm Calm -- 29.70 in1005.8 mb - 0.00 in0.0 mm 0.00 in0.0 mm
12:40 PM 68.1°F20.1°C 40.1°F4.5°C 36% Calm Calm -- 29.72 in1006.4 mb - 0.00 in0.0 mm 0.00 in0.0 mm
12:30 PM 68.4°F20.2°C 39.6°F4.2°C 35% Calm Calm -- 29.69 in1005.4 mb - 0.00 in0.0 mm 0.00 in0.0 mm
12:20 PM 68.1°F20.1°C 40.1°F4.5°C 36% Calm Calm -- 29.69 in1005.4 mb - 0.00 in0.0 mm 0.00 in0.0 mm
12:10 PM 68.1°F20.1°C 40.9°F4.9°C 37% Calm Calm -- 29.69 in1005.4 mb - 0.00 in0.0 mm 0.00 in0.0 mm
12:00 PM 68.0°F20.0°C 41.4°F5.2°C 38% Calm Calm -- 29.69 in1005.4 mb - 0.00 in0.0 mm 0.00 in0.0 mm
11:50 AM 69.0°F20.6°C 42.3°F5.7°C 38% Calm Calm -- 29.69 in1005.4 mb - 0.00 in0.0 mm 0.00 in0.0 mm
11:40 AM 68.0°F20.0°C 41.4°F5.2°C 38% Calm Calm -- 29.69 in1005.4 mb - 0.00 in0.0 mm 0.00 in0.0 mm
11:30 AM 66.7°F19.3°C 41.6°F5.3°C 40% Calm Calm -- 29.69 in1005.4 mb - 0.00 in0.0 mm 0.00 in0.0 mm
11:20 AM 67.1°F19.5°C 39.9°F4.4°C 37% Calm Calm -- 29.69 in1005.4 mb - 0.00 in0.0 mm 0.00 in0.0 mm
11:10 AM 67.4°F19.7°C 41.6°F5.3°C 39% Calm Calm -- 29.69 in1005.4 mb - 0.00 in0.0 mm 0.00 in0.0 mm
11:00 AM 69.0°F20.6°C 43.0°F6.1°C 39% Calm Calm -- 29.69 in1005.4 mb - 0.00 in0.0 mm 0.00 in0.0 mm
10:50 AM 68.5°F20.3°C 43.2°F6.2°C 40% Calm Calm -- 29.69 in1005.4 mb - 0.00 in0.0 mm 0.00 in0.0 mm
10:40 AM 67.3°F19.6°C 42.1°F5.6°C 40% Calm Calm -- 29.69 in1005.4 mb - 0.00 in0.0 mm 0.00 in0.0 mm
10:30 AM 67.0°F19.4°C 41.9°F5.5°C 40% Calm Calm -- 29.69 in1005.4 mb - 0.00 in0.0 mm 0.00 in0.0 mm
10:20 AM 66.2°F19.0°C 41.8°F5.4°C 41% Calm Calm -- 29.69 in1005.4 mb - 0.00 in0.0 mm 0.00 in0.0 mm
10:10 AM 65.1°F18.4°C 40.8°F4.9°C 41% Calm Calm -- 29.69 in1005.4 mb - 0.00 in0.0 mm 0.00 in0.0 mm
10:00 AM 63.9°F17.7°C 40.3°F4.6°C 42% Calm Calm -- 29.69 in1005.4 mb - 0.00 in0.0 mm 0.00 in0.0 mm
09:50 AM 65.8°F18.8°C 41.4°F5.2°C 41% Calm Calm -- 29.66 in1004.4 mb - 0.00 in0.0 mm 0.00 in0.0 mm
09:40 AM 66.7°F19.3°C 42.2°F5.7°C 41% Calm Calm -- 29.66 in1004.4 mb - 0.00 in0.0 mm 0.00 in0.0 mm
09:30 AM 65.2°F18.4°C 41.5°F5.3°C 42% Calm Calm -- 29.66 in1004.4 mb - 0.00 in0.0 mm 0.00 in0.0 mm
09:20 AM 66.6°F19.2°C 42.1°F5.6°C 41% Calm Calm -- 29.66 in1004.4 mb - 0.00 in0.0 mm 0.00 in0.0 mm
09:10 AM 66.7°F19.3°C 42.2°F5.7°C 41% Calm Calm -- 29.66 in1004.4 mb - 0.00 in0.0 mm 0.00 in0.0 mm
09:00 AM 65.8°F18.8°C 41.5°F5.3°C 41% Calm Calm -- 29.66 in1004.4 mb - 0.00 in0.0 mm 0.00 in0.0 mm
08:50 AM 64.9°F18.3°C 40.7°F4.8°C 41% Calm Calm -- 29.66 in1004.4 mb - 0.00 in0.0 mm 0.00 in0.0 mm
08:40 AM 64.7°F18.2°C 41.0°F5.0°C 42% Calm Calm -- 29.66 in1004.4 mb - 0.00 in0.0 mm 0.00 in0.0 mm
08:30 AM 64.6°F18.1°C 41.6°F5.3°C 43% Calm Calm -- 29.66 in1004.4 mb - 0.00 in0.0 mm 0.00 in0.0 mm
08:20 AM 63.4°F17.4°C 42.3°F5.7°C 46% Calm Calm -- 29.66 in1004.4 mb - 0.00 in0.0 mm 0.00 in0.0 mm
08:10 AM 62.3°F16.8°C 43.4°F6.3°C 50% Calm Calm -- 29.66 in1004.4 mb - 0.00 in0.0 mm 0.00 in0.0 mm
08:00 AM 60.5°F15.8°C 42.8°F6.0°C 52% Calm Calm -- 29.66 in1004.4 mb - 0.00 in0.0 mm 0.00 in0.0 mm
07:50 AM 59.0°F15.0°C 44.2°F6.8°C 58% Calm Calm -- 29.66 in1004.4 mb - 0.00 in0.0 mm 0.00 in0.0 mm
07:40 AM 57.4°F14.1°C 44.1°F6.7°C 61% Calm Calm -- 29.66 in1004.4 mb - 0.00 in0.0 mm 0.00 in0.0 mm
07:30 AM 55.2°F12.9°C 43.2°F6.2°C 64% Calm Calm -- 29.66 in1004.4 mb - 0.00 in0.0 mm 0.00 in0.0 mm
07:20 AM 52.3°F11.3°C 40.5°F4.7°C 64% Calm Calm -- 29.66 in1004.4 mb - 0.00 in0.0 mm 0.00 in0.0 mm
07:10 AM 50.3°F10.2°C 38.6°F3.7°C 64% Calm Calm -- 29.66 in1004.4 mb - 0.00 in0.0 mm 0.00 in0.0 mm
07:00 AM 48.9°F9.4°C 37.3°F2.9°C 64% Calm Calm -- 29.66 in1004.4 mb - 0.00 in0.0 mm 0.00 in0.0 mm
06:50 AM 48.5°F9.2°C 36.9°F2.7°C 64% Calm Calm -- 29.63 in1003.4 mb - 0.00 in0.0 mm 0.00 in0.0 mm
06:40 AM 48.0°F8.9°C 36.0°F2.2°C 63% Calm Calm -- 29.63 in1003.4 mb - 0.00 in0.0 mm 0.00 in0.0 mm
06:30 AM 48.0°F8.9°C 36.0°F2.2°C 63% Calm Calm -- 29.63 in1003.4 mb - 0.00 in0.0 mm 0.00 in0.0 mm
06:20 AM 48.0°F8.9°C 36.0°F2.2°C 63% Calm Calm -- 29.63 in1003.4 mb - 0.00 in0.0 mm 0.00 in0.0 mm
06:10 AM 48.2°F9.0°C 36.2°F2.3°C 63% Calm Calm -- 29.63 in1003.4 mb - 0.00 in0.0 mm 0.00 in0.0 mm
06:00 AM 48.2°F9.0°C 36.2°F2.3°C 63% Calm Calm -- 29.63 in1003.4 mb - 0.00 in0.0 mm 0.00 in0.0 mm
05:50 AM 48.6°F9.2°C 36.1°F2.3°C 62% Calm Calm -- 29.63 in1003.4 mb - 0.00 in0.0 mm 0.00 in0.0 mm
05:40 AM 48.9°F9.4°C 36.5°F2.5°C 62% Calm Calm -- 29.63 in1003.4 mb - 0.00 in0.0 mm 0.00 in0.0 mm
05:30 AM 49.1°F9.5°C 36.6°F2.6°C 62% Calm Calm -- 29.63 in1003.4 mb - 0.00 in0.0 mm 0.00 in0.0 mm
05:20 AM 49.5°F9.7°C 37.0°F2.8°C 62% Calm Calm -- 29.63 in1003.4 mb - 0.00 in0.0 mm 0.00 in0.0 mm
05:10 AM 49.6°F9.8°C 37.1°F2.8°C 62% Calm Calm -- 29.63 in1003.4 mb - 0.00 in0.0 mm 0.00 in0.0 mm
05:00 AM 49.9°F9.9°C 37.4°F3.0°C 62% Calm Calm -- 29.63 in1003.4 mb - 0.00 in0.0 mm 0.00 in0.0 mm
04:50 AM 50.2°F10.1°C 37.7°F3.2°C 62% Calm Calm -- 29.66 in1004.4 mb - 0.00 in0.0 mm 0.00 in0.0 mm
04:40 AM 50.5°F10.3°C 37.6°F3.1°C 61% Calm Calm -- 29.66 in1004.4 mb - 0.00 in0.0 mm 0.00 in0.0 mm
04:30 AM 50.9°F10.5°C 37.9°F3.3°C 61% Calm Calm -- 29.66 in1004.4 mb - 0.00 in0.0 mm 0.00 in0.0 mm
04:20 AM 51.3°F10.7°C 38.3°F3.5°C 61% Calm Calm -- 29.66 in1004.4 mb - 0.00 in0.0 mm 0.00 in0.0 mm
04:10 AM 51.4°F10.8°C 38.4°F3.6°C 61% Calm Calm -- 29.66 in1004.4 mb - 0.00 in0.0 mm 0.00 in0.0 mm
04:00 AM 51.6°F10.9°C 38.6°F3.7°C 61% Calm Calm -- 29.66 in1004.4 mb - 0.00 in0.0 mm 0.00 in0.0 mm
03:50 AM 51.8°F11.0°C 38.8°F3.8°C 61% Calm Calm -- 29.66 in1004.4 mb - 0.00 in0.0 mm 0.00 in0.0 mm
03:40 AM 52.0°F11.1°C 38.9°F3.8°C 61% Calm Calm -- 29.66 in1004.4 mb - 0.00 in0.0 mm 0.00 in0.0 mm
03:30 AM 52.0°F11.1°C 38.9°F3.8°C 61% Calm Calm -- 29.66 in1004.4 mb - 0.00 in0.0 mm 0.00 in0.0 mm
03:20 AM 52.0°F11.1°C 38.5°F3.6°C 60% Calm Calm -- 29.66 in1004.4 mb - 0.00 in0.0 mm 0.00 in0.0 mm
03:10 AM 52.3°F11.3°C 38.8°F3.8°C 60% Calm Calm -- 29.66 in1004.4 mb - 0.00 in0.0 mm 0.00 in0.0 mm
03:00 AM 52.3°F11.3°C 38.9°F3.8°C 60% Calm Calm -- 29.66 in1004.4 mb - 0.00 in0.0 mm 0.00 in0.0 mm
02:50 AM 52.3°F11.3°C 38.9°F3.8°C 60% Calm Calm -- 29.66 in1004.4 mb - 0.00 in0.0 mm 0.00 in0.0 mm
02:40 AM 52.3°F11.3°C 38.8°F3.8°C 60% Calm Calm -- 29.66 in1004.4 mb - 0.00 in0.0 mm 0.00 in0.0 mm
02:30 AM 52.2°F11.2°C 39.1°F3.9°C 61% Calm Calm -- 29.69 in1005.4 mb - 0.00 in0.0 mm 0.00 in0.0 mm
02:20 AM 52.2°F11.2°C 38.7°F3.7°C 60% Calm Calm -- 29.69 in1005.4 mb - 0.00 in0.0 mm 0.00 in0.0 mm
02:10 AM 52.2°F11.2°C 38.7°F3.7°C 60% Calm Calm -- 29.69 in1005.4 mb - 0.00 in0.0 mm 0.00 in0.0 mm
02:00 AM 52.3°F11.3°C 38.9°F3.8°C 60% Calm Calm -- 29.69 in1005.4 mb - 0.00 in0.0 mm 0.00 in0.0 mm
01:50 AM 52.4°F11.3°C 38.9°F3.8°C 60% Calm Calm -- 29.70 in1005.8 mb - 0.00 in0.0 mm 0.00 in0.0 mm
01:40 AM 52.7°F11.5°C 38.8°F3.8°C 59% Calm Calm -- 29.72 in1006.4 mb - 0.00 in0.0 mm 0.00 in0.0 mm
01:30 AM 52.7°F11.5°C 38.8°F3.8°C 59% Calm Calm -- 29.72 in1006.4 mb - 0.00 in0.0 mm 0.00 in0.0 mm
01:20 AM 52.5°F11.4°C 38.6°F3.7°C 59% Calm Calm -- 29.72 in1006.4 mb - 0.00 in0.0 mm 0.00 in0.0 mm
01:10 AM 52.5°F11.4°C 38.6°F3.7°C 59% Calm Calm -- 29.72 in1006.4 mb - 0.00 in0.0 mm 0.00 in0.0 mm
01:00 AM 52.3°F11.3°C 38.4°F3.6°C 59% Calm Calm -- 29.72 in1006.4 mb - 0.00 in0.0 mm 0.00 in0.0 mm
12:50 AM 52.5°F11.4°C 38.2°F3.4°C 58% Calm Calm -- 29.72 in1006.4 mb - 0.00 in0.0 mm 0.00 in0.0 mm
12:40 AM 52.7°F11.5°C 37.9°F3.3°C 57% Calm Calm -- 29.72 in1006.4 mb - 0.00 in0.0 mm 0.00 in0.0 mm
12:30 AM 52.8°F11.6°C 38.0°F3.3°C 57% Calm Calm -- 29.72 in1006.4 mb - 0.00 in0.0 mm 0.00 in0.0 mm
12:20 AM 52.9°F11.6°C 38.1°F3.4°C 57% Calm Calm -- 29.72 in1006.4 mb - 0.00 in0.0 mm 0.00 in0.0 mm
12:10 AM 52.9°F11.6°C 38.1°F3.4°C 57% Calm Calm -- 29.72 in1006.4 mb - 0.00 in0.0 mm 0.00 in0.0 mm
12:00 AM 52.9°F11.6°C 38.1°F3.4°C 57% Calm Calm -- 29.75 in1007.5 mb - 0.00 in0.0 mm 0.00 in0.0 mm